sensor_id;sensor_type;location;lat;lon;timestamp;P1;durP1;ratioP1;P2;durP2;ratioP2
6551;SDS011;3309;48.708;9.290;2022-09-29T00:02:22;0.70;;;0.70;;
6551;SDS011;3309;48.708;9.290;2022-09-29T00:04:48;0.80;;;0.80;;
6551;SDS011;3309;48.708;9.290;2022-09-29T00:07:13;0.70;;;0.70;;
6551;SDS011;3309;48.708;9.290;2022-09-29T00:09:39;0.80;;;0.80;;
6551;SDS011;3309;48.708;9.290;2022-09-29T00:12:04;0.70;;;0.70;;
6551;SDS011;3309;48.708;9.290;2022-09-29T00:14:30;0.80;;;0.80;;
6551;SDS011;3309;48.708;9.290;2022-09-29T00:16:56;0.70;;;0.70;;
6551;SDS011;3309;48.708;9.290;2022-09-29T00:19:21;0.60;;;0.60;;
6551;SDS011;3309;48.708;9.290;2022-09-29T00:21:47;0.70;;;0.70;;
6551;SDS011;3309;48.708;9.290;2022-09-29T00:24:12;0.60;;;0.60;;
6551;SDS011;3309;48.708;9.290;2022-09-29T00:26:38;0.80;;;0.80;;
6551;SDS011;3309;48.708;9.290;2022-09-29T00:29:03;0.67;;;0.67;;
6551;SDS011;3309;48.708;9.290;2022-09-29T00:31:30;0.70;;;0.70;;
6551;SDS011;3309;48.708;9.290;2022-09-29T00:33:56;0.60;;;0.60;;
6551;SDS011;3309;48.708;9.290;2022-09-29T00:36:22;0.60;;;0.60;;
6551;SDS011;3309;48.708;9.290;2022-09-29T00:38:49;0.60;;;0.60;;
6551;SDS011;3309;48.708;9.290;2022-09-29T00:41:21;0.60;;;0.60;;
6551;SDS011;3309;48.708;9.290;2022-09-29T00:43:50;0.70;;;0.70;;
6551;SDS011;3309;48.708;9.290;2022-09-29T00:46:23;0.70;;;0.70;;
6551;SDS011;3309;48.708;9.290;2022-09-29T00:48:54;0.70;;;0.70;;
6551;SDS011;3309;48.708;9.290;2022-09-29T00:51:23;0.70;;;0.70;;
6551;SDS011;3309;48.708;9.290;2022-09-29T00:53:51;0.60;;;0.60;;
6551;SDS011;3309;48.708;9.290;2022-09-29T00:56:17;0.80;;;0.80;;
6551;SDS011;3309;48.708;9.290;2022-09-29T00:58:48;0.70;;;0.70;;
6551;SDS011;3309;48.708;9.290;2022-09-29T01:01:21;0.70;;;0.70;;
6551;SDS011;3309;48.708;9.290;2022-09-29T01:03:47;0.70;;;0.70;;
6551;SDS011;3309;48.708;9.290;2022-09-29T01:06:17;0.70;;;0.70;;
6551;SDS011;3309;48.708;9.290;2022-09-29T01:08:53;0.77;;;0.77;;
6551;SDS011;3309;48.708;9.290;2022-09-29T01:11:25;0.63;;;0.63;;
6551;SDS011;3309;48.708;9.290;2022-09-29T01:13:51;0.80;;;0.80;;
6551;SDS011;3309;48.708;9.290;2022-09-29T01:16:19;0.80;;;0.80;;
6551;SDS011;3309;48.708;9.290;2022-09-29T01:18:45;0.70;;;0.70;;
6551;SDS011;3309;48.708;9.290;2022-09-29T01:33:14;0.70;;;0.70;;
6551;SDS011;3309;48.708;9.290;2022-09-29T01:42:07;0.73;;;0.73;;
6551;SDS011;3309;48.708;9.290;2022-09-29T01:44:41;0.80;;;0.80;;
6551;SDS011;3309;48.708;9.290;2022-09-29T01:49:48;0.70;;;0.70;;
6551;SDS011;3309;48.708;9.290;2022-09-29T01:52:20;0.60;;;0.60;;
6551;SDS011;3309;48.708;9.290;2022-09-29T01:54:54;0.80;;;0.80;;
6551;SDS011;3309;48.708;9.290;2022-09-29T01:57:28;0.60;;;0.60;;
6551;SDS011;3309;48.708;9.290;2022-09-29T02:00:04;0.70;;;0.70;;
6551;SDS011;3309;48.708;9.290;2022-09-29T02:02:49;0.60;;;0.60;;
6551;SDS011;3309;48.708;9.290;2022-09-29T02:05:32;0.60;;;0.60;;
6551;SDS011;3309;48.708;9.290;2022-09-29T02:08:06;0.70;;;0.70;;
6551;SDS011;3309;48.708;9.290;2022-09-29T02:10:38;0.70;;;0.70;;
6551;SDS011;3309;48.708;9.290;2022-09-29T02:13:09;0.70;;;0.70;;
6551;SDS011;3309;48.708;9.290;2022-09-29T02:15:38;0.60;;;0.60;;
6551;SDS011;3309;48.708;9.290;2022-09-29T02:18:10;0.70;;;0.70;;
6551;SDS011;3309;48.708;9.290;2022-09-29T02:20:51;0.70;;;0.70;;
6551;SDS011;3309;48.708;9.290;2022-09-29T02:23:17;0.70;;;0.70;;
6551;SDS011;3309;48.708;9.290;2022-09-29T02:25:42;0.80;;;0.80;;
6551;SDS011;3309;48.708;9.290;2022-09-29T02:28:11;0.67;;;0.67;;
6551;SDS011;3309;48.708;9.290;2022-09-29T02:30:37;0.70;;;0.70;;
6551;SDS011;3309;48.708;9.290;2022-09-29T02:33:03;0.70;;;0.70;;
6551;SDS011;3309;48.708;9.290;2022-09-29T02:35:41;0.67;;;0.67;;
6551;SDS011;3309;48.708;9.290;2022-09-29T02:38:42;0.60;;;0.60;;
6551;SDS011;3309;48.708;9.290;2022-09-29T02:41:15;0.60;;;0.60;;
6551;SDS011;3309;48.708;9.290;2022-09-29T02:46:31;0.70;;;0.70;;
6551;SDS011;3309;48.708;9.290;2022-09-29T02:51:58;0.63;;;0.63;;
6551;SDS011;3309;48.708;9.290;2022-09-29T03:02:36;0.60;;;0.60;;
6551;SDS011;3309;48.708;9.290;2022-09-29T03:05:04;0.70;;;0.70;;
6551;SDS011;3309;48.708;9.290;2022-09-29T03:07:32;0.80;;;0.80;;
6551;SDS011;3309;48.708;9.290;2022-09-29T03:09:58;0.60;;;0.60;;
6551;SDS011;3309;48.708;9.290;2022-09-29T03:12:23;0.70;;;0.70;;
6551;SDS011;3309;48.708;9.290;2022-09-29T03:14:49;0.60;;;0.60;;
6551;SDS011;3309;48.708;9.290;2022-09-29T03:17:15;0.70;;;0.70;;
6551;SDS011;3309;48.708;9.290;2022-09-29T03:19:40;0.70;;;0.70;;
6551;SDS011;3309;48.708;9.290;2022-09-29T03:22:06;0.70;;;0.70;;
6551;SDS011;3309;48.708;9.290;2022-09-29T03:24:31;0.60;;;0.60;;
6551;SDS011;3309;48.708;9.290;2022-09-29T03:26:57;0.70;;;0.70;;
6551;SDS011;3309;48.708;9.290;2022-09-29T03:29:22;0.60;;;0.60;;
6551;SDS011;3309;48.708;9.290;2022-09-29T03:31:48;0.80;;;0.80;;
6551;SDS011;3309;48.708;9.290;2022-09-29T03:34:14;0.70;;;0.70;;
6551;SDS011;3309;48.708;9.290;2022-09-29T03:36:39;0.80;;;0.80;;
6551;SDS011;3309;48.708;9.290;2022-09-29T03:39:08;0.70;;;0.70;;
6551;SDS011;3309;48.708;9.290;2022-09-29T03:41:33;0.70;;;0.70;;
6551;SDS011;3309;48.708;9.290;2022-09-29T03:43:59;0.70;;;0.70;;
6551;SDS011;3309;48.708;9.290;2022-09-29T03:46:24;0.60;;;0.60;;
6551;SDS011;3309;48.708;9.290;2022-09-29T03:48:50;0.70;;;0.70;;
6551;SDS011;3309;48.708;9.290;2022-09-29T03:51:15;0.70;;;0.70;;
6551;SDS011;3309;48.708;9.290;2022-09-29T03:53:41;0.70;;;0.70;;
6551;SDS011;3309;48.708;9.290;2022-09-29T03:56:07;0.60;;;0.60;;
6551;SDS011;3309;48.708;9.290;2022-09-29T03:58:33;0.60;;;0.60;;
6551;SDS011;3309;48.708;9.290;2022-09-29T04:00:59;0.67;;;0.67;;
6551;SDS011;3309;48.708;9.290;2022-09-29T04:03:26;0.70;;;0.70;;
6551;SDS011;3309;48.708;9.290;2022-09-29T04:05:52;0.60;;;0.60;;
6551;SDS011;3309;48.708;9.290;2022-09-29T04:08:18;0.63;;;0.63;;
6551;SDS011;3309;48.708;9.290;2022-09-29T04:10:44;0.60;;;0.60;;
6551;SDS011;3309;48.708;9.290;2022-09-29T04:13:11;0.70;;;0.70;;
6551;SDS011;3309;48.708;9.290;2022-09-29T04:15:37;0.70;;;0.70;;
6551;SDS011;3309;48.708;9.290;2022-09-29T04:18:02;0.60;;;0.60;;
6551;SDS011;3309;48.708;9.290;2022-09-29T04:20:28;0.60;;;0.60;;
6551;SDS011;3309;48.708;9.290;2022-09-29T04:22:54;0.60;;;0.60;;
6551;SDS011;3309;48.708;9.290;2022-09-29T04:25:19;0.70;;;0.70;;
6551;SDS011;3309;48.708;9.290;2022-09-29T04:27:45;0.60;;;0.60;;
6551;SDS011;3309;48.708;9.290;2022-09-29T04:30:10;0.70;;;0.70;;
6551;SDS011;3309;48.708;9.290;2022-09-29T04:32:36;0.60;;;0.60;;
6551;SDS011;3309;48.708;9.290;2022-09-29T04:35:02;0.60;;;0.60;;
6551;SDS011;3309;48.708;9.290;2022-09-29T04:37:28;0.70;;;0.70;;
6551;SDS011;3309;48.708;9.290;2022-09-29T04:39:53;0.60;;;0.60;;
6551;SDS011;3309;48.708;9.290;2022-09-29T04:42:19;0.60;;;0.60;;
6551;SDS011;3309;48.708;9.290;2022-09-29T04:44:45;0.60;;;0.60;;
6551;SDS011;3309;48.708;9.290;2022-09-29T04:47:11;0.70;;;0.70;;
6551;SDS011;3309;48.708;9.290;2022-09-29T04:49:37;0.70;;;0.70;;
6551;SDS011;3309;48.708;9.290;2022-09-29T04:52:02;0.60;;;0.60;;
6551;SDS011;3309;48.708;9.290;2022-09-29T04:54:29;0.60;;;0.60;;
6551;SDS011;3309;48.708;9.290;2022-09-29T04:56:59;0.70;;;0.70;;
6551;SDS011;3309;48.708;9.290;2022-09-29T04:59:25;0.70;;;0.70;;
6551;SDS011;3309;48.708;9.290;2022-09-29T05:01:51;0.70;;;0.70;;
6551;SDS011;3309;48.708;9.290;2022-09-29T05:04:17;0.60;;;0.60;;
6551;SDS011;3309;48.708;9.290;2022-09-29T05:06:43;0.70;;;0.70;;
6551;SDS011;3309;48.708;9.290;2022-09-29T05:09:08;0.67;;;0.67;;
6551;SDS011;3309;48.708;9.290;2022-09-29T05:11:34;0.63;;;0.63;;
6551;SDS011;3309;48.708;9.290;2022-09-29T05:13:59;0.70;;;0.70;;
6551;SDS011;3309;48.708;9.290;2022-09-29T05:16:25;0.70;;;0.70;;
6551;SDS011;3309;48.708;9.290;2022-09-29T05:18:51;0.70;;;0.70;;
6551;SDS011;3309;48.708;9.290;2022-09-29T05:21:16;0.70;;;0.70;;
6551;SDS011;3309;48.708;9.290;2022-09-29T05:23:42;0.70;;;0.70;;
6551;SDS011;3309;48.708;9.290;2022-09-29T05:26:08;0.70;;;0.70;;
6551;SDS011;3309;48.708;9.290;2022-09-29T05:28:35;0.70;;;0.70;;
6551;SDS011;3309;48.708;9.290;2022-09-29T05:31:05;0.70;;;0.70;;
6551;SDS011;3309;48.708;9.290;2022-09-29T05:33:32;0.60;;;0.60;;
6551;SDS011;3309;48.708;9.290;2022-09-29T05:35:59;0.70;;;0.70;;
6551;SDS011;3309;48.708;9.290;2022-09-29T05:38:25;0.70;;;0.70;;
6551;SDS011;3309;48.708;9.290;2022-09-29T05:40:51;0.63;;;0.63;;
6551;SDS011;3309;48.708;9.290;2022-09-29T05:43:17;0.70;;;0.70;;
6551;SDS011;3309;48.708;9.290;2022-09-29T05:45:43;0.80;;;0.80;;
6551;SDS011;3309;48.708;9.290;2022-09-29T05:48:09;0.67;;;0.67;;
6551;SDS011;3309;48.708;9.290;2022-09-29T05:50:34;0.63;;;0.63;;
6551;SDS011;3309;48.708;9.290;2022-09-29T05:53:07;0.70;;;0.70;;
6551;SDS011;3309;48.708;9.290;2022-09-29T05:55:36;0.60;;;0.60;;
6551;SDS011;3309;48.708;9.290;2022-09-29T05:58:03;0.70;;;0.70;;
6551;SDS011;3309;48.708;9.290;2022-09-29T06:00:31;0.60;;;0.60;;
6551;SDS011;3309;48.708;9.290;2022-09-29T06:02:58;0.70;;;0.70;;
6551;SDS011;3309;48.708;9.290;2022-09-29T06:05:24;0.70;;;0.70;;
6551;SDS011;3309;48.708;9.290;2022-09-29T06:07:51;0.60;;;0.60;;
6551;SDS011;3309;48.708;9.290;2022-09-29T06:10:16;0.90;;;0.90;;
6551;SDS011;3309;48.708;9.290;2022-09-29T06:12:42;0.60;;;0.60;;
6551;SDS011;3309;48.708;9.290;2022-09-29T06:15:09;0.70;;;0.70;;
6551;SDS011;3309;48.708;9.290;2022-09-29T06:17:35;0.70;;;0.70;;
6551;SDS011;3309;48.708;9.290;2022-09-29T06:20:01;0.70;;;0.70;;
6551;SDS011;3309;48.708;9.290;2022-09-29T06:22:27;0.70;;;0.70;;
6551;SDS011;3309;48.708;9.290;2022-09-29T06:24:53;0.70;;;0.70;;
6551;SDS011;3309;48.708;9.290;2022-09-29T06:27:19;0.70;;;0.70;;
6551;SDS011;3309;48.708;9.290;2022-09-29T06:29:45;0.70;;;0.70;;
6551;SDS011;3309;48.708;9.290;2022-09-29T06:32:10;0.70;;;0.70;;
6551;SDS011;3309;48.708;9.290;2022-09-29T06:34:36;0.80;;;0.80;;
6551;SDS011;3309;48.708;9.290;2022-09-29T06:37:21;0.63;;;0.63;;
6551;SDS011;3309;48.708;9.290;2022-09-29T06:39:59;0.73;;;0.73;;
6551;SDS011;3309;48.708;9.290;2022-09-29T06:42:28;0.70;;;0.70;;
6551;SDS011;3309;48.708;9.290;2022-09-29T06:44:54;0.60;;;0.60;;
6551;SDS011;3309;48.708;9.290;2022-09-29T06:47:20;0.60;;;0.60;;
6551;SDS011;3309;48.708;9.290;2022-09-29T06:49:45;0.60;;;0.60;;
6551;SDS011;3309;48.708;9.290;2022-09-29T06:52:11;0.70;;;0.70;;
6551;SDS011;3309;48.708;9.290;2022-09-29T06:54:36;0.60;;;0.60;;
6551;SDS011;3309;48.708;9.290;2022-09-29T06:57:02;0.60;;;0.60;;
6551;SDS011;3309;48.708;9.290;2022-09-29T06:59:27;0.70;;;0.70;;
6551;SDS011;3309;48.708;9.290;2022-09-29T07:01:53;0.63;;;0.63;;
6551;SDS011;3309;48.708;9.290;2022-09-29T07:04:19;0.60;;;0.60;;
6551;SDS011;3309;48.708;9.290;2022-09-29T07:06:45;0.70;;;0.70;;
6551;SDS011;3309;48.708;9.290;2022-09-29T07:09:11;0.70;;;0.70;;
6551;SDS011;3309;48.708;9.290;2022-09-29T07:11:40;0.70;;;0.70;;
6551;SDS011;3309;48.708;9.290;2022-09-29T07:14:10;0.70;;;0.70;;
6551;SDS011;3309;48.708;9.290;2022-09-29T07:16:36;0.60;;;0.60;;
6551;SDS011;3309;48.708;9.290;2022-09-29T07:19:02;0.83;;;0.83;;
6551;SDS011;3309;48.708;9.290;2022-09-29T07:21:28;0.60;;;0.60;;
6551;SDS011;3309;48.708;9.290;2022-09-29T07:23:53;0.63;;;0.63;;
6551;SDS011;3309;48.708;9.290;2022-09-29T07:26:19;0.60;;;0.60;;
6551;SDS011;3309;48.708;9.290;2022-09-29T07:28:44;0.70;;;0.70;;
6551;SDS011;3309;48.708;9.290;2022-09-29T07:31:14;0.60;;;0.60;;
6551;SDS011;3309;48.708;9.290;2022-09-29T07:33:42;0.60;;;0.60;;
6551;SDS011;3309;48.708;9.290;2022-09-29T07:36:08;0.60;;;0.60;;
6551;SDS011;3309;48.708;9.290;2022-09-29T07:38:34;0.80;;;0.80;;
6551;SDS011;3309;48.708;9.290;2022-09-29T07:41:00;0.70;;;0.70;;
6551;SDS011;3309;48.708;9.290;2022-09-29T07:43:27;0.50;;;0.50;;
6551;SDS011;3309;48.708;9.290;2022-09-29T07:45:54;0.70;;;0.70;;
6551;SDS011;3309;48.708;9.290;2022-09-29T07:48:19;0.70;;;0.70;;
6551;SDS011;3309;48.708;9.290;2022-09-29T07:50:45;0.60;;;0.60;;
6551;SDS011;3309;48.708;9.290;2022-09-29T07:53:11;0.70;;;0.70;;
6551;SDS011;3309;48.708;9.290;2022-09-29T07:55:37;0.70;;;0.70;;
6551;SDS011;3309;48.708;9.290;2022-09-29T07:58:03;0.60;;;0.60;;
6551;SDS011;3309;48.708;9.290;2022-09-29T08:00:29;0.60;;;0.60;;
6551;SDS011;3309;48.708;9.290;2022-09-29T08:02:57;0.70;;;0.70;;
6551;SDS011;3309;48.708;9.290;2022-09-29T08:05:27;0.70;;;0.70;;
6551;SDS011;3309;48.708;9.290;2022-09-29T08:07:55;0.60;;;0.60;;
6551;SDS011;3309;48.708;9.290;2022-09-29T08:10:21;0.70;;;0.70;;
6551;SDS011;3309;48.708;9.290;2022-09-29T08:12:47;0.60;;;0.60;;
6551;SDS011;3309;48.708;9.290;2022-09-29T08:15:13;0.63;;;0.63;;
6551;SDS011;3309;48.708;9.290;2022-09-29T08:17:38;0.60;;;0.60;;
6551;SDS011;3309;48.708;9.290;2022-09-29T08:20:04;0.60;;;0.60;;
6551;SDS011;3309;48.708;9.290;2022-09-29T08:22:29;0.60;;;0.60;;
6551;SDS011;3309;48.708;9.290;2022-09-29T08:24:55;0.57;;;0.57;;
6551;SDS011;3309;48.708;9.290;2022-09-29T08:27:22;0.60;;;0.60;;
6551;SDS011;3309;48.708;9.290;2022-09-29T08:29:47;0.50;;;0.50;;
6551;SDS011;3309;48.708;9.290;2022-09-29T08:32:13;0.43;;;0.43;;
6551;SDS011;3309;48.708;9.290;2022-09-29T08:34:38;0.57;;;0.57;;
6551;SDS011;3309;48.708;9.290;2022-09-29T08:37:04;0.50;;;0.50;;
6551;SDS011;3309;48.708;9.290;2022-09-29T08:39:30;0.60;;;0.60;;
6551;SDS011;3309;48.708;9.290;2022-09-29T08:44:47;0.50;;;0.50;;
6551;SDS011;3309;48.708;9.290;2022-09-29T08:47:29;0.50;;;0.50;;
6551;SDS011;3309;48.708;9.290;2022-09-29T08:50:00;0.60;;;0.60;;
6551;SDS011;3309;48.708;9.290;2022-09-29T08:52:34;0.60;;;0.60;;
6551;SDS011;3309;48.708;9.290;2022-09-29T08:57:45;0.47;;;0.47;;
6551;SDS011;3309;48.708;9.290;2022-09-29T09:00:13;0.50;;;0.50;;
6551;SDS011;3309;48.708;9.290;2022-09-29T09:08:40;0.50;;;0.50;;
6551;SDS011;3309;48.708;9.290;2022-09-29T09:11:36;0.40;;;0.40;;
6551;SDS011;3309;48.708;9.290;2022-09-29T09:17:07;0.50;;;0.50;;
6551;SDS011;3309;48.708;9.290;2022-09-29T09:20:00;0.40;;;0.40;;
6551;SDS011;3309;48.708;9.290;2022-09-29T09:22:56;0.40;;;0.40;;
6551;SDS011;3309;48.708;9.290;2022-09-29T09:25:45;0.50;;;0.50;;
6551;SDS011;3309;48.708;9.290;2022-09-29T09:31:03;0.40;;;0.40;;
6551;SDS011;3309;48.708;9.290;2022-09-29T09:36:19;0.40;;;0.40;;
6551;SDS011;3309;48.708;9.290;2022-09-29T09:38:54;0.50;;;0.50;;
6551;SDS011;3309;48.708;9.290;2022-09-29T09:41:28;0.40;;;0.40;;
6551;SDS011;3309;48.708;9.290;2022-09-29T09:43:56;0.40;;;0.40;;
6551;SDS011;3309;48.708;9.290;2022-09-29T09:46:37;0.50;;;0.50;;
6551;SDS011;3309;48.708;9.290;2022-09-29T09:49:25;0.60;;;0.60;;
6551;SDS011;3309;48.708;9.290;2022-09-29T09:52:03;0.50;;;0.50;;
6551;SDS011;3309;48.708;9.290;2022-09-29T09:54:33;0.40;;;0.40;;
6551;SDS011;3309;48.708;9.290;2022-09-29T09:57:26;0.50;;;0.50;;
6551;SDS011;3309;48.708;9.290;2022-09-29T10:02:34;0.40;;;0.40;;
6551;SDS011;3309;48.708;9.290;2022-09-29T10:05:08;0.40;;;0.40;;
6551;SDS011;3309;48.708;9.290;2022-09-29T10:07:36;0.40;;;0.40;;
6551;SDS011;3309;48.708;9.290;2022-09-29T10:10:02;0.50;;;0.50;;
6551;SDS011;3309;48.708;9.290;2022-09-29T10:12:37;0.50;;;0.50;;
6551;SDS011;3309;48.708;9.290;2022-09-29T10:15:04;0.40;;;0.40;;
6551;SDS011;3309;48.708;9.290;2022-09-29T10:17:41;0.40;;;0.40;;
6551;SDS011;3309;48.708;9.290;2022-09-29T10:20:10;0.50;;;0.50;;
6551;SDS011;3309;48.708;9.290;2022-09-29T10:22:36;0.40;;;0.40;;
6551;SDS011;3309;48.708;9.290;2022-09-29T10:25:16;0.50;;;0.50;;
6551;SDS011;3309;48.708;9.290;2022-09-29T10:27:44;0.50;;;0.50;;
6551;SDS011;3309;48.708;9.290;2022-09-29T10:30:19;0.30;;;0.30;;
6551;SDS011;3309;48.708;9.290;2022-09-29T10:32:49;0.40;;;0.40;;
6551;SDS011;3309;48.708;9.290;2022-09-29T10:35:23;0.40;;;0.40;;
6551;SDS011;3309;48.708;9.290;2022-09-29T10:38:02;0.30;;;0.30;;
6551;SDS011;3309;48.708;9.290;2022-09-29T10:40:31;0.50;;;0.50;;
6551;SDS011;3309;48.708;9.290;2022-09-29T10:42:57;0.30;;;0.30;;
6551;SDS011;3309;48.708;9.290;2022-09-29T10:45:47;0.40;;;0.40;;
6551;SDS011;3309;48.708;9.290;2022-09-29T10:48:13;0.40;;;0.40;;
6551;SDS011;3309;48.708;9.290;2022-09-29T10:55:58;0.47;;;0.47;;
6551;SDS011;3309;48.708;9.290;2022-09-29T10:58:39;0.50;;;0.50;;
6551;SDS011;3309;48.708;9.290;2022-09-29T11:01:11;0.50;;;0.50;;
6551;SDS011;3309;48.708;9.290;2022-09-29T11:03:39;0.40;;;0.40;;
6551;SDS011;3309;48.708;9.290;2022-09-29T11:06:14;0.50;;;0.50;;
6551;SDS011;3309;48.708;9.290;2022-09-29T11:17:00;0.50;;;0.50;;
6551;SDS011;3309;48.708;9.290;2022-09-29T11:19:43;0.50;;;0.50;;
6551;SDS011;3309;48.708;9.290;2022-09-29T11:27:37;0.30;;;0.30;;
6551;SDS011;3309;48.708;9.290;2022-09-29T11:30:47;0.40;;;0.40;;
6551;SDS011;3309;48.708;9.290;2022-09-29T11:33:48;0.40;;;0.40;;
6551;SDS011;3309;48.708;9.290;2022-09-29T11:44:55;0.40;;;0.40;;
6551;SDS011;3309;48.708;9.290;2022-09-29T12:00:02;0.40;;;0.40;;
6551;SDS011;3309;48.708;9.290;2022-09-29T12:02:59;0.40;;;0.40;;
6551;SDS011;3309;48.708;9.290;2022-09-29T12:16:56;0.30;;;0.30;;
6551;SDS011;3309;48.708;9.290;2022-09-29T12:19:26;0.40;;;0.40;;
6551;SDS011;3309;48.708;9.290;2022-09-29T12:21:56;0.40;;;0.40;;
6551;SDS011;3309;48.708;9.290;2022-09-29T12:24:45;0.30;;;0.30;;
6551;SDS011;3309;48.708;9.290;2022-09-29T12:27:25;0.40;;;0.40;;
6551;SDS011;3309;48.708;9.290;2022-09-29T12:30:02;0.40;;;0.40;;
6551;SDS011;3309;48.708;9.290;2022-09-29T12:32:38;0.40;;;0.40;;
6551;SDS011;3309;48.708;9.290;2022-09-29T12:35:11;0.33;;;0.33;;
6551;SDS011;3309;48.708;9.290;2022-09-29T12:37:51;0.40;;;0.40;;
6551;SDS011;3309;48.708;9.290;2022-09-29T12:40:31;0.30;;;0.30;;
6551;SDS011;3309;48.708;9.290;2022-09-29T12:46:08;0.50;;;0.50;;
6551;SDS011;3309;48.708;9.290;2022-09-29T12:51:31;0.40;;;0.40;;
6551;SDS011;3309;48.708;9.290;2022-09-29T12:54:15;0.40;;;0.40;;
6551;SDS011;3309;48.708;9.290;2022-09-29T12:57:00;0.40;;;0.40;;
6551;SDS011;3309;48.708;9.290;2022-09-29T12:59:33;0.40;;;0.40;;
6551;SDS011;3309;48.708;9.290;2022-09-29T13:02:04;0.37;;;0.37;;
6551;SDS011;3309;48.708;9.290;2022-09-29T13:04:52;0.50;;;0.50;;
6551;SDS011;3309;48.708;9.290;2022-09-29T13:07:40;0.50;;;0.50;;
6551;SDS011;3309;48.708;9.290;2022-09-29T13:13:00;0.50;;;0.50;;
6551;SDS011;3309;48.708;9.290;2022-09-29T13:16:06;0.50;;;0.50;;
6551;SDS011;3309;48.708;9.290;2022-09-29T13:22:02;0.50;;;0.50;;
6551;SDS011;3309;48.708;9.290;2022-09-29T13:27:15;0.57;;;0.57;;
6551;SDS011;3309;48.708;9.290;2022-09-29T13:30:00;0.40;;;0.40;;
6551;SDS011;3309;48.708;9.290;2022-09-29T13:32:30;0.43;;;0.43;;
6551;SDS011;3309;48.708;9.290;2022-09-29T13:35:02;0.40;;;0.40;;
6551;SDS011;3309;48.708;9.290;2022-09-29T13:37:40;0.50;;;0.50;;
6551;SDS011;3309;48.708;9.290;2022-09-29T13:40:14;0.40;;;0.40;;
6551;SDS011;3309;48.708;9.290;2022-09-29T13:42:46;0.50;;;0.50;;
6551;SDS011;3309;48.708;9.290;2022-09-29T13:47:44;0.40;;;0.40;;
6551;SDS011;3309;48.708;9.290;2022-09-29T14:00:48;0.40;;;0.40;;
6551;SDS011;3309;48.708;9.290;2022-09-29T14:03:34;0.40;;;0.40;;
6551;SDS011;3309;48.708;9.290;2022-09-29T14:06:04;0.40;;;0.40;;
6551;SDS011;3309;48.708;9.290;2022-09-29T14:08:53;0.40;;;0.40;;
6551;SDS011;3309;48.708;9.290;2022-09-29T14:11:29;0.40;;;0.40;;
6551;SDS011;3309;48.708;9.290;2022-09-29T14:14:15;0.60;;;0.60;;
6551;SDS011;3309;48.708;9.290;2022-09-29T14:21:59;0.40;;;0.40;;
6551;SDS011;3309;48.708;9.290;2022-09-29T14:29:57;0.47;;;0.47;;
6551;SDS011;3309;48.708;9.290;2022-09-29T14:32:37;0.50;;;0.50;;
6551;SDS011;3309;48.708;9.290;2022-09-29T14:35:13;0.53;;;0.53;;
6551;SDS011;3309;48.708;9.290;2022-09-29T14:37:41;0.50;;;0.50;;
6551;SDS011;3309;48.708;9.290;2022-09-29T14:40:08;0.50;;;0.50;;
6551;SDS011;3309;48.708;9.290;2022-09-29T14:43:10;0.40;;;0.40;;
6551;SDS011;3309;48.708;9.290;2022-09-29T14:52:15;0.50;;;0.50;;
6551;SDS011;3309;48.708;9.290;2022-09-29T15:00:14;0.40;;;0.40;;
6551;SDS011;3309;48.708;9.290;2022-09-29T15:02:45;0.50;;;0.50;;
6551;SDS011;3309;48.708;9.290;2022-09-29T15:07:50;0.40;;;0.40;;
6551;SDS011;3309;48.708;9.290;2022-09-29T15:10:21;0.50;;;0.50;;
6551;SDS011;3309;48.708;9.290;2022-09-29T15:12:52;0.50;;;0.50;;
6551;SDS011;3309;48.708;9.290;2022-09-29T15:15:38;0.40;;;0.40;;
6551;SDS011;3309;48.708;9.290;2022-09-29T15:18:56;0.40;;;0.40;;
6551;SDS011;3309;48.708;9.290;2022-09-29T15:26:45;0.47;;;0.47;;
6551;SDS011;3309;48.708;9.290;2022-09-29T15:29:13;0.50;;;0.50;;
6551;SDS011;3309;48.708;9.290;2022-09-29T15:31:42;0.40;;;0.40;;
6551;SDS011;3309;48.708;9.290;2022-09-29T15:34:18;0.50;;;0.50;;
6551;SDS011;3309;48.708;9.290;2022-09-29T15:36:50;0.50;;;0.50;;
6551;SDS011;3309;48.708;9.290;2022-09-29T15:41:59;0.50;;;0.50;;
6551;SDS011;3309;48.708;9.290;2022-09-29T15:44:30;0.50;;;0.50;;
6551;SDS011;3309;48.708;9.290;2022-09-29T15:46:58;0.50;;;0.50;;
6551;SDS011;3309;48.708;9.290;2022-09-29T15:49:28;0.60;;;0.60;;
6551;SDS011;3309;48.708;9.290;2022-09-29T15:54:30;0.50;;;0.50;;
6551;SDS011;3309;48.708;9.290;2022-09-29T15:57:04;0.60;;;0.60;;
6551;SDS011;3309;48.708;9.290;2022-09-29T15:59:50;0.50;;;0.50;;
6551;SDS011;3309;48.708;9.290;2022-09-29T16:02:25;0.50;;;0.50;;
6551;SDS011;3309;48.708;9.290;2022-09-29T16:04:53;0.50;;;0.50;;
6551;SDS011;3309;48.708;9.290;2022-09-29T16:07:23;0.50;;;0.50;;
6551;SDS011;3309;48.708;9.290;2022-09-29T16:09:57;0.60;;;0.60;;
6551;SDS011;3309;48.708;9.290;2022-09-29T16:12:28;0.40;;;0.40;;
6551;SDS011;3309;48.708;9.290;2022-09-29T16:14:59;0.50;;;0.50;;
6551;SDS011;3309;48.708;9.290;2022-09-29T16:17:25;0.40;;;0.40;;
6551;SDS011;3309;48.708;9.290;2022-09-29T16:19:51;0.50;;;0.50;;
6551;SDS011;3309;48.708;9.290;2022-09-29T16:22:19;0.47;;;0.47;;
6551;SDS011;3309;48.708;9.290;2022-09-29T16:24:51;0.40;;;0.40;;
6551;SDS011;3309;48.708;9.290;2022-09-29T16:28:21;0.50;;;0.50;;
6551;SDS011;3309;48.708;9.290;2022-09-29T16:30:20;0.40;;;0.40;;
6551;SDS011;3309;48.708;9.290;2022-09-29T16:32:55;0.57;;;0.57;;
6551;SDS011;3309;48.708;9.290;2022-09-29T16:35:36;0.50;;;0.50;;
6551;SDS011;3309;48.708;9.290;2022-09-29T16:38:09;0.50;;;0.50;;
6551;SDS011;3309;48.708;9.290;2022-09-29T16:40:37;0.40;;;0.40;;
6551;SDS011;3309;48.708;9.290;2022-09-29T16:43:04;0.40;;;0.40;;
6551;SDS011;3309;48.708;9.290;2022-09-29T16:45:29;0.50;;;0.50;;
6551;SDS011;3309;48.708;9.290;2022-09-29T16:47:55;0.50;;;0.50;;
6551;SDS011;3309;48.708;9.290;2022-09-29T16:50:21;0.40;;;0.40;;
6551;SDS011;3309;48.708;9.290;2022-09-29T16:52:47;0.60;;;0.60;;
6551;SDS011;3309;48.708;9.290;2022-09-29T16:55:19;0.40;;;0.40;;
6551;SDS011;3309;48.708;9.290;2022-09-29T16:58:02;0.60;;;0.60;;
6551;SDS011;3309;48.708;9.290;2022-09-29T17:00:33;0.50;;;0.50;;
6551;SDS011;3309;48.708;9.290;2022-09-29T17:03:00;0.60;;;0.60;;
6551;SDS011;3309;48.708;9.290;2022-09-29T17:05:30;0.50;;;0.50;;
6551;SDS011;3309;48.708;9.290;2022-09-29T17:08:01;0.50;;;0.50;;
6551;SDS011;3309;48.708;9.290;2022-09-29T17:10:29;0.50;;;0.50;;
6551;SDS011;3309;48.708;9.290;2022-09-29T17:12:55;0.50;;;0.50;;
6551;SDS011;3309;48.708;9.290;2022-09-29T17:15:22;0.50;;;0.50;;
6551;SDS011;3309;48.708;9.290;2022-09-29T17:17:48;0.57;;;0.57;;
6551;SDS011;3309;48.708;9.290;2022-09-29T17:20:16;0.63;;;0.63;;
6551;SDS011;3309;48.708;9.290;2022-09-29T17:22:44;0.50;;;0.50;;
6551;SDS011;3309;48.708;9.290;2022-09-29T17:25:11;0.60;;;0.60;;
6551;SDS011;3309;48.708;9.290;2022-09-29T17:27:37;0.60;;;0.60;;
6551;SDS011;3309;48.708;9.290;2022-09-29T17:30:22;0.63;;;0.63;;
6551;SDS011;3309;48.708;9.290;2022-09-29T17:32:50;0.60;;;0.60;;
6551;SDS011;3309;48.708;9.290;2022-09-29T17:35:18;0.70;;;0.70;;
6551;SDS011;3309;48.708;9.290;2022-09-29T17:37:48;0.70;;;0.70;;
6551;SDS011;3309;48.708;9.290;2022-09-29T17:40:18;0.50;;;0.50;;
6551;SDS011;3309;48.708;9.290;2022-09-29T17:42:47;0.60;;;0.60;;
6551;SDS011;3309;48.708;9.290;2022-09-29T17:45:13;0.60;;;0.60;;
6551;SDS011;3309;48.708;9.290;2022-09-29T17:47:41;0.67;;;0.67;;
6551;SDS011;3309;48.708;9.290;2022-09-29T17:52:42;0.60;;;0.60;;
6551;SDS011;3309;48.708;9.290;2022-09-29T17:55:07;0.53;;;0.53;;
6551;SDS011;3309;48.708;9.290;2022-09-29T17:57:35;0.70;;;0.70;;
6551;SDS011;3309;48.708;9.290;2022-09-29T18:00:03;0.50;;;0.50;;
6551;SDS011;3309;48.708;9.290;2022-09-29T18:02:39;0.60;;;0.60;;
6551;SDS011;3309;48.708;9.290;2022-09-29T18:05:04;0.50;;;0.50;;
6551;SDS011;3309;48.708;9.290;2022-09-29T18:07:33;0.70;;;0.70;;
6551;SDS011;3309;48.708;9.290;2022-09-29T18:13:07;0.60;;;0.60;;
6551;SDS011;3309;48.708;9.290;2022-09-29T18:19:33;0.70;;;0.70;;
6551;SDS011;3309;48.708;9.290;2022-09-29T18:22:09;0.70;;;0.70;;
6551;SDS011;3309;48.708;9.290;2022-09-29T18:24:34;0.50;;;0.50;;
6551;SDS011;3309;48.708;9.290;2022-09-29T18:27:00;0.50;;;0.50;;
6551;SDS011;3309;48.708;9.290;2022-09-29T18:29:26;0.60;;;0.60;;
6551;SDS011;3309;48.708;9.290;2022-09-29T18:31:55;0.60;;;0.60;;
6551;SDS011;3309;48.708;9.290;2022-09-29T18:34:20;0.60;;;0.60;;
6551;SDS011;3309;48.708;9.290;2022-09-29T18:36:47;0.57;;;0.57;;
6551;SDS011;3309;48.708;9.290;2022-09-29T18:39:12;0.60;;;0.60;;